createdAt,value
2018-07-22T00:01:41.608Z,12.05
2018-07-22T00:04:15.314Z,12.07
2018-07-22T00:06:49.046Z,12.50
2018-07-22T00:09:23.452Z,11.60
2018-07-22T00:11:57.275Z,13.20
2018-07-22T00:14:31.187Z,11.65
2018-07-22T00:17:05.026Z,11.02
2018-07-22T00:19:38.763Z,11.38
2018-07-22T00:22:13.344Z,11.60
2018-07-22T00:24:47.200Z,12.00
2018-07-22T00:27:20.900Z,10.85
2018-07-22T00:29:54.661Z,10.60
2018-07-22T00:32:28.544Z,14.77
2018-07-22T00:35:02.344Z,11.50
2018-07-22T00:37:36.119Z,11.30
2018-07-22T00:40:10.001Z,11.70
2018-07-22T00:42:43.827Z,11.45
2018-07-22T00:45:18.483Z,11.00
2018-07-22T00:47:53.108Z,11.15
2018-07-22T00:50:27.021Z,11.15
2018-07-22T00:53:01.468Z,10.38
2018-07-22T00:55:35.279Z,10.45
2018-07-22T00:58:09.089Z,10.05
2018-07-22T01:00:43.571Z,9.10
2018-07-22T01:03:17.396Z,9.32
2018-07-22T01:05:51.116Z,10.25
2018-07-22T01:08:24.942Z,10.43
2018-07-22T01:10:58.843Z,10.30
2018-07-22T01:13:32.679Z,10.30
2018-07-22T01:16:06.438Z,9.73
2018-07-22T01:18:40.247Z,9.95
2018-07-22T01:21:14.035Z,9.25
2018-07-22T01:23:48.678Z,10.05
2018-07-22T01:26:22.484Z,9.38
2018-07-22T01:28:56.168Z,9.98
2018-07-22T01:31:29.894Z,10.02
2018-07-22T01:34:03.730Z,10.68
2018-07-22T01:36:37.502Z,10.35
2018-07-22T01:39:12.041Z,9.38
2018-07-22T01:41:45.823Z,11.68
2018-07-22T01:44:20.469Z,19.10
2018-07-22T01:46:54.375Z,9.40
2018-07-22T01:49:28.848Z,9.45
2018-07-22T01:52:03.444Z,9.50
2018-07-22T01:54:37.213Z,9.35
2018-07-22T01:57:11.029Z,8.70
2018-07-22T01:59:44.977Z,9.20
2018-07-22T02:02:18.778Z,9.05
2018-07-22T02:04:52.453Z,9.32
2018-07-22T02:07:27.077Z,9.48
2018-07-22T02:10:00.904Z,9.57
2018-07-22T02:12:34.806Z,9.27
2018-07-22T02:15:08.460Z,9.70
2018-07-22T02:17:42.317Z,9.65
2018-07-22T02:20:16.696Z,9.50
2018-07-22T02:22:50.399Z,9.52
2018-07-22T02:25:24.904Z,8.93
2018-07-22T02:27:59.362Z,8.95
2018-07-22T02:30:33.047Z,9.77
2018-07-22T02:33:06.853Z,8.85
2018-07-22T02:35:40.647Z,9.63
2018-07-22T02:38:15.196Z,9.00
2018-07-22T02:40:49.051Z,9.40
2018-07-22T02:43:22.875Z,9.98
2018-07-22T02:45:56.687Z,9.77
2018-07-22T02:48:30.573Z,9.43
2018-07-22T02:51:05.123Z,8.98
2018-07-22T02:53:38.965Z,9.25
2018-07-22T02:56:13.444Z,9.27
2018-07-22T02:58:47.165Z,10.25
2018-07-22T03:01:20.941Z,10.07
2018-07-22T03:03:54.625Z,10.43
2018-07-22T03:06:28.388Z,9.73
2018-07-22T03:09:02.101Z,10.13
2018-07-22T03:11:35.944Z,10.07
2018-07-22T03:14:10.514Z,9.75
2018-07-22T03:16:44.109Z,9.55
2018-07-22T03:19:17.883Z,10.43
2018-07-22T03:21:51.653Z,9.65
2018-07-22T03:24:25.551Z,9.48
2018-07-22T03:26:59.333Z,9.13
2018-07-22T03:29:33.988Z,10.10
2018-07-22T03:32:08.460Z,10.32
2018-07-22T03:34:43.053Z,9.82
2018-07-22T03:37:16.698Z,9.93
2018-07-22T03:39:50.596Z,11.10
2018-07-22T03:42:25.246Z,10.43
2018-07-22T03:44:59.035Z,8.70
2018-07-22T03:47:32.871Z,9.73
2018-07-22T03:50:06.691Z,10.23
2018-07-22T03:52:40.514Z,9.75
2018-07-22T03:55:14.305Z,10.32
2018-07-22T03:57:48.203Z,9.80
2018-07-22T04:00:21.930Z,8.77
2018-07-22T04:02:55.808Z,10.40
2018-07-22T04:05:30.308Z,10.07
2018-07-22T04:08:04.059Z,10.23
2018-07-22T04:10:37.868Z,10.90
2018-07-22T04:13:11.656Z,9.52
2018-07-22T04:15:45.492Z,10.10
2018-07-22T04:18:19.250Z,9.98
2018-07-22T04:20:53.049Z,10.07
2018-07-22T04:23:27.601Z,9.45
2018-07-22T04:26:01.279Z,9.30
2018-07-22T04:28:35.118Z,9.68
2018-07-22T04:31:08.948Z,10.95
2018-07-22T04:33:43.412Z,9.70
2018-07-22T04:36:17.956Z,9.98
2018-07-22T04:38:51.660Z,11.45
2018-07-22T04:41:25.375Z,9.95
2018-07-22T04:43:59.224Z,9.30
2018-07-22T04:46:32.985Z,10.13
2018-07-22T04:49:06.821Z,9.90
2018-07-22T04:51:40.588Z,17.62
2018-07-22T04:54:14.400Z,10.93
2018-07-22T04:56:49.027Z,9.63
2018-07-22T04:59:23.539Z,9.80
2018-07-22T05:01:57.188Z,9.88
2018-07-22T05:04:31.100Z,10.57
2018-07-22T05:07:04.787Z,9.43
2018-07-22T05:09:38.599Z,10.30
2018-07-22T05:12:12.515Z,10.40
2018-07-22T05:14:46.287Z,10.60
2018-07-22T05:17:20.064Z,10.27
2018-07-22T05:19:53.981Z,9.85
2018-07-22T05:22:28.376Z,10.10
2018-07-22T05:25:02.136Z,10.07
2018-07-22T05:27:35.813Z,11.10
2018-07-22T05:30:09.555Z,10.15
2018-07-22T05:32:43.275Z,9.43
2018-07-22T05:35:17.085Z,10.35
2018-07-22T05:37:50.819Z,10.13
2018-07-22T05:40:24.559Z,9.25
2018-07-22T05:42:58.188Z,9.80
2018-07-22T05:45:32.682Z,10.55
2018-07-22T05:48:07.192Z,10.90
2018-07-22T05:50:40.941Z,10.70
2018-07-22T05:53:14.740Z,10.68
2018-07-22T05:55:49.182Z,10.57
2018-07-22T05:58:23.019Z,9.88
2018-07-22T06:00:57.660Z,10.90
2018-07-22T06:03:31.411Z,11.30
2018-07-22T06:06:05.026Z,9.70
2018-07-22T06:08:38.896Z,10.00
2018-07-22T06:11:13.512Z,9.48
2018-07-22T06:13:47.310Z,9.20
2018-07-22T06:16:21.921Z,9.60
2018-07-22T06:18:55.743Z,8.75
2018-07-22T06:21:30.340Z,9.90
2018-07-22T06:24:04.179Z,9.18
2018-07-22T06:26:38.680Z,11.20
2018-07-22T06:29:12.509Z,10.70
2018-07-22T06:31:46.203Z,10.05
2018-07-22T06:34:19.962Z,10.40
2018-07-22T06:36:53.639Z,11.10
2018-07-22T06:39:27.368Z,9.85
2018-07-22T06:42:01.965Z,10.13
2018-07-22T06:44:36.559Z,10.90
2018-07-22T06:47:10.393Z,10.10
2018-07-22T06:49:44.858Z,10.37
2018-07-22T06:52:18.576Z,10.17
2018-07-22T06:54:52.260Z,10.50
2018-07-22T06:57:26.003Z,9.93
2018-07-22T06:59:59.882Z,10.00
2018-07-22T07:02:33.559Z,9.57
2018-07-22T07:05:07.539Z,10.60
2018-07-22T07:07:41.288Z,11.47
2018-07-22T07:10:15.025Z,11.13
2018-07-22T07:12:48.861Z,11.80
2018-07-22T07:15:22.524Z,12.17
2018-07-22T07:17:56.331Z,11.93
2018-07-22T07:20:30.156Z,11.83
2018-07-22T07:23:04.666Z,11.43
2018-07-22T07:25:38.325Z,12.07
2018-07-22T07:28:12.119Z,20.27
2018-07-22T07:30:45.987Z,11.90
2018-07-22T07:33:19.793Z,12.20
2018-07-22T07:35:54.460Z,10.77
2018-07-22T07:38:28.154Z,12.30
2018-07-22T07:41:01.825Z,12.77
2018-07-22T07:43:35.674Z,12.00
2018-07-22T07:46:09.413Z,11.80
2018-07-22T07:48:43.178Z,12.27
2018-07-22T07:51:16.888Z,13.30
2018-07-22T07:53:50.697Z,12.80
2018-07-22T07:56:24.540Z,12.17
2018-07-22T07:58:58.365Z,14.17
2018-07-22T08:01:32.323Z,14.43
2018-07-22T08:04:06.054Z,14.97
2018-07-22T08:06:39.909Z,13.00
2018-07-22T08:09:13.772Z,13.47
2018-07-22T08:11:48.241Z,13.27
2018-07-22T08:14:22.752Z,13.70
2018-07-22T08:16:56.580Z,12.30
2018-07-22T08:19:31.156Z,13.00
2018-07-22T08:22:05.046Z,13.57
2018-07-22T08:24:38.862Z,14.67
2018-07-22T08:27:12.625Z,14.40
2018-07-22T08:29:46.355Z,12.53
2018-07-22T08:32:20.223Z,14.33
2018-07-22T08:34:54.004Z,12.33
2018-07-22T08:37:27.827Z,14.00
2018-07-22T08:40:01.557Z,14.20
2018-07-22T08:42:35.366Z,14.37
2018-07-22T08:45:09.056Z,14.87
2018-07-22T08:47:43.569Z,14.50
2018-07-22T08:50:18.066Z,14.77
2018-07-22T08:52:51.740Z,14.50
2018-07-22T08:55:25.541Z,13.20
2018-07-22T08:57:59.365Z,14.23
2018-07-22T09:00:33.117Z,13.80
2018-07-22T09:03:06.940Z,12.63
2018-07-22T09:05:40.648Z,12.83
2018-07-22T09:08:14.464Z,11.97
2018-07-22T09:10:48.216Z,11.80
2018-07-22T09:13:22.023Z,10.77
2018-07-22T09:15:56.763Z,11.30
2018-07-22T09:18:30.358Z,11.03
2018-07-22T09:21:04.298Z,11.20
2018-07-22T09:23:38.855Z,11.37
2018-07-22T09:26:12.687Z,10.80
2018-07-22T09:28:47.235Z,11.87
2018-07-22T09:31:21.019Z,11.40
2018-07-22T09:33:54.864Z,11.97
2018-07-22T09:36:29.424Z,11.27
2018-07-22T09:39:04.025Z,12.60
2018-07-22T09:41:37.884Z,12.30
2018-07-22T09:44:11.679Z,12.10
2018-07-22T09:46:46.277Z,10.93
2018-07-22T09:49:20.813Z,10.50
2018-07-22T09:51:54.694Z,11.90
2018-07-22T09:54:28.412Z,10.60
2018-07-22T09:57:03.070Z,11.40
2018-07-22T09:59:38.467Z,11.13
2018-07-22T10:02:12.121Z,10.83
2018-07-22T10:04:45.956Z,11.13
2018-07-22T10:07:20.445Z,11.73
2018-07-22T10:09:54.388Z,12.00
2018-07-22T10:12:28.976Z,10.70
2018-07-22T10:15:02.787Z,10.60
2018-07-22T10:17:36.679Z,9.97
2018-07-22T10:20:10.347Z,10.47
2018-07-22T10:22:44.219Z,10.63
2018-07-22T10:25:17.991Z,10.00
2018-07-22T10:27:51.769Z,11.37
2018-07-22T10:30:25.565Z,10.67
2018-07-22T10:33:00.020Z,10.87
2018-07-22T10:35:34.476Z,11.70
2018-07-22T10:38:08.108Z,11.17
2018-07-22T10:40:41.974Z,11.57
2018-07-22T10:43:15.743Z,10.63
2018-07-22T10:45:49.525Z,12.50
2018-07-22T10:48:23.437Z,10.63
2018-07-22T10:50:57.277Z,10.53
2018-07-22T10:53:30.915Z,11.17
2018-07-22T10:56:04.743Z,11.20
2018-07-22T10:58:38.847Z,11.00
2018-07-22T11:01:12.641Z,11.60
2018-07-22T11:03:46.450Z,10.57
2018-07-22T11:06:20.250Z,10.83
2018-07-22T11:08:54.022Z,11.20
2018-07-22T11:11:28.670Z,11.67
2018-07-22T11:14:02.527Z,10.27
2018-07-22T11:16:36.282Z,10.70
2018-07-22T11:19:10.105Z,10.77
2018-07-22T11:21:43.928Z,11.10
2018-07-22T11:24:17.834Z,11.57
2018-07-22T11:26:51.644Z,11.17
2018-07-22T11:29:25.415Z,12.10
2018-07-22T11:32:00.085Z,12.00
2018-07-22T11:34:33.854Z,11.10
2018-07-22T11:37:08.464Z,13.13
2018-07-22T11:39:42.173Z,11.60
2018-07-22T11:42:15.900Z,12.17
2018-07-22T11:44:49.688Z,12.23
2018-07-22T11:47:23.480Z,12.23
2018-07-22T11:49:57.324Z,12.80
2018-07-22T11:52:31.105Z,13.50
2018-07-22T11:55:05.638Z,11.90
2018-07-22T11:57:40.104Z,13.17
2018-07-22T12:00:14.740Z,13.73
2018-07-22T12:02:48.576Z,12.73
2018-07-22T12:05:22.476Z,13.57
2018-07-22T12:07:56.208Z,12.93
2018-07-22T12:10:30.008Z,13.60
2018-07-22T12:13:03.844Z,12.80
2018-07-22T12:15:38.531Z,14.63
2018-07-22T12:18:12.339Z,12.80
2018-07-22T12:20:46.163Z,13.07
2018-07-22T12:23:19.781Z,13.87
2018-07-22T12:25:54.388Z,13.60
2018-07-22T12:28:28.002Z,12.90
2018-07-22T12:31:01.803Z,13.33
2018-07-22T12:33:35.570Z,14.37
2018-07-22T12:36:09.429Z,13.83
2018-07-22T12:38:43.171Z,12.70
2018-07-22T12:41:16.997Z,12.47
2018-07-22T12:43:50.646Z,12.30
2018-07-22T12:46:24.425Z,12.87
2018-07-22T12:48:58.996Z,12.30
2018-07-22T12:51:32.725Z,12.53
2018-07-22T12:54:07.232Z,13.17
2018-07-22T12:56:41.851Z,14.23
2018-07-22T12:59:16.321Z,13.40
2018-07-22T13:01:50.095Z,13.97
2018-07-22T13:04:25.694Z,14.33
2018-07-22T13:06:59.413Z,16.17
2018-07-22T13:09:33.210Z,15.73
2018-07-22T13:12:07.009Z,15.63
2018-07-22T13:14:40.812Z,15.40
2018-07-22T13:17:15.392Z,15.37
2018-07-22T13:19:49.955Z,14.20
2018-07-22T13:22:23.625Z,16.20
2018-07-22T13:24:57.548Z,17.17
2018-07-22T13:27:32.194Z,17.50
2018-07-22T13:30:05.916Z,16.60
2018-07-22T13:32:39.680Z,18.13
2018-07-22T13:35:13.439Z,19.93
2018-07-22T13:37:47.332Z,19.17
2018-07-22T13:40:21.072Z,20.00
2018-07-22T13:42:55.627Z,20.27
2018-07-22T13:45:29.371Z,18.40
2018-07-22T13:48:03.936Z,20.43
2018-07-22T13:50:37.730Z,20.02
2018-07-22T13:53:12.388Z,16.50
2018-07-22T13:55:46.164Z,15.13
2018-07-22T13:58:20.085Z,13.13
2018-07-22T14:00:53.874Z,10.15
2018-07-22T14:03:27.553Z,10.15
2018-07-22T14:06:01.372Z,9.93
2018-07-22T14:08:35.053Z,9.40
2018-07-22T14:11:08.808Z,9.32
2018-07-22T14:13:42.600Z,9.00
2018-07-22T14:16:17.167Z,10.75
2018-07-22T14:18:50.932Z,11.80
2018-07-22T14:21:24.792Z,10.02
2018-07-22T14:23:58.422Z,14.18
2018-07-22T14:26:33.027Z,10.77
2018-07-22T14:29:06.641Z,11.48
2018-07-22T14:31:41.225Z,10.45
2018-07-22T14:34:15.696Z,12.23
2018-07-22T14:36:50.356Z,13.40
2018-07-22T14:39:24.359Z,12.25
2018-07-22T14:41:58.088Z,12.57
2018-07-22T14:44:31.820Z,12.35
2018-07-22T14:47:05.667Z,15.23
2018-07-22T14:49:40.112Z,13.68
2018-07-22T14:52:13.889Z,15.25
2018-07-22T14:54:47.544Z,15.32
2018-07-22T14:57:21.340Z,16.77
2018-07-22T14:59:55.942Z,17.08
2018-07-22T15:02:29.718Z,16.60
2018-07-22T15:05:03.615Z,18.87
2018-07-22T15:07:37.360Z,15.93
2018-07-22T15:10:10.941Z,15.25
2018-07-22T15:12:44.812Z,14.00
2018-07-22T15:15:19.351Z,17.08
2018-07-22T15:17:53.771Z,14.00
2018-07-22T15:20:28.332Z,16.52
2018-07-22T15:23:02.962Z,19.12
2018-07-22T15:25:36.811Z,21.58
2018-07-22T15:28:10.498Z,22.23
2018-07-22T15:30:44.180Z,20.17
2018-07-22T15:33:18.100Z,13.50
2018-07-22T15:35:52.682Z,14.30
2018-07-22T15:38:26.587Z,14.35
2018-07-22T15:41:01.237Z,14.93
2018-07-22T15:43:35.086Z,14.93
2018-07-22T15:46:09.679Z,15.45
2018-07-22T15:48:44.248Z,18.33
2018-07-22T15:51:18.148Z,18.35
2018-07-22T15:53:51.952Z,17.02
2018-07-22T15:56:26.637Z,19.15
2018-07-22T15:59:00.400Z,20.85
2018-07-22T16:01:35.114Z,20.12
2018-07-22T16:04:08.830Z,22.23
2018-07-22T16:06:43.396Z,19.70
2018-07-22T16:09:17.256Z,22.52
2018-07-22T16:11:50.887Z,18.23
2018-07-22T16:14:24.638Z,19.17
2018-07-22T16:16:58.484Z,19.20
2018-07-22T16:19:32.220Z,18.08
2018-07-22T16:22:06.000Z,19.67
2018-07-22T16:24:39.750Z,20.40
2018-07-22T16:27:13.627Z,17.65
2018-07-22T16:29:47.508Z,17.40
2018-07-22T16:32:21.360Z,15.90
2018-07-22T16:34:55.012Z,16.05
2018-07-22T16:37:29.571Z,15.85
2018-07-22T16:40:03.233Z,15.27
2018-07-22T16:42:37.616Z,15.43
2018-07-22T16:45:12.195Z,17.25
2018-07-22T16:47:46.036Z,16.52
2018-07-22T16:50:20.537Z,17.08
2018-07-22T16:52:54.415Z,15.82
2018-07-22T16:55:28.078Z,15.52
2018-07-22T16:58:01.859Z,15.75
2018-07-22T17:00:36.317Z,17.52
2018-07-22T17:03:10.125Z,14.95
2018-07-22T17:05:44.896Z,16.75
2018-07-22T17:08:18.756Z,13.15
2018-07-22T17:10:53.150Z,17.02
2018-07-22T17:13:26.985Z,17.12
2018-07-22T17:16:01.588Z,16.92
2018-07-22T17:18:35.391Z,17.37
2018-07-22T17:21:09.077Z,15.02
2018-07-22T17:23:42.855Z,16.95
2018-07-22T17:26:16.782Z,18.15
2018-07-22T17:28:50.661Z,20.30
2018-07-22T17:31:24.410Z,18.55
2018-07-22T17:33:58.952Z,18.23
2018-07-22T17:36:32.799Z,19.83
2018-07-22T17:39:06.628Z,19.62
2018-07-22T17:41:40.414Z,22.87
2018-07-22T17:44:14.207Z,21.33
2018-07-22T17:46:48.011Z,20.20
2018-07-22T17:49:21.616Z,20.92
2018-07-22T17:51:55.298Z,19.02
2018-07-22T17:54:29.084Z,19.15
2018-07-22T17:57:02.812Z,20.20
2018-07-22T17:59:36.550Z,19.52
2018-07-22T18:02:11.122Z,20.85
2018-07-22T18:04:45.772Z,19.20
2018-07-22T18:07:20.386Z,19.45
2018-07-22T18:09:54.343Z,17.98
2018-07-22T18:12:27.979Z,18.83
2018-07-22T18:15:01.705Z,20.05
2018-07-22T18:17:36.179Z,18.05
2018-07-22T18:20:10.125Z,18.20
2018-07-22T18:22:44.522Z,19.33
2018-07-22T18:25:18.347Z,19.05
2018-07-22T18:27:52.140Z,20.37
2018-07-22T18:30:25.918Z,20.95
2018-07-22T18:32:59.544Z,19.37
2018-07-22T18:35:34.094Z,19.23
2018-07-22T18:38:08.006Z,19.48
2018-07-22T18:40:41.744Z,19.23
2018-07-22T18:43:16.311Z,19.23
2018-07-22T18:45:50.138Z,17.50
2018-07-22T18:48:24.207Z,18.58
2018-07-22T18:50:58.070Z,19.20
2018-07-22T18:53:32.484Z,18.58
2018-07-22T18:56:06.263Z,16.58
2018-07-22T18:58:40.167Z,18.50
2018-07-22T19:01:14.093Z,15.88
2018-07-22T19:03:47.898Z,17.05
2018-07-22T19:06:22.409Z,18.35
2018-07-22T19:08:56.374Z,16.87
2018-07-22T19:11:29.996Z,18.27
2018-07-22T19:14:03.707Z,16.23
2018-07-22T19:16:37.383Z,15.55
2018-07-22T19:19:11.187Z,15.43
2018-07-22T19:21:44.984Z,18.02
2018-07-22T19:24:18.676Z,18.83
2018-07-22T19:26:52.695Z,17.92
2018-07-22T19:29:27.295Z,16.95
2018-07-22T19:32:01.197Z,19.40
2018-07-22T19:34:34.876Z,17.27
2018-07-22T19:37:08.652Z,17.35
2018-07-22T19:39:42.987Z,16.98
2018-07-22T19:42:17.708Z,16.70
2018-07-22T19:44:51.507Z,17.27
2018-07-22T19:47:25.991Z,16.17
2018-07-22T19:49:59.787Z,16.60
2018-07-22T19:52:33.603Z,16.50
2018-07-22T19:55:07.344Z,16.45
2018-07-22T19:57:41.109Z,18.35
2018-07-22T20:00:14.812Z,20.37
2018-07-22T20:02:48.592Z,18.70
2018-07-22T20:05:23.243Z,18.33
2018-07-22T20:07:56.996Z,18.40
2018-07-22T20:10:31.341Z,26.55
2018-07-22T20:13:05.160Z,21.95
2018-07-22T20:15:39.665Z,24.60
2018-07-22T20:18:13.563Z,20.00
2018-07-22T20:20:47.211Z,22.87
2018-07-22T20:23:21.052Z,24.40
2018-07-22T20:25:55.631Z,22.95
2018-07-22T20:28:29.484Z,21.62
2018-07-22T20:31:03.326Z,21.50
2018-07-22T20:33:37.077Z,21.40
2018-07-22T20:36:11.587Z,20.77
2018-07-22T20:38:45.221Z,20.62
2018-07-22T20:41:19.881Z,21.75
2018-07-22T20:43:53.654Z,20.77
2018-07-22T20:46:27.518Z,23.92
2018-07-22T20:49:01.456Z,23.08
2018-07-22T20:51:36.045Z,23.85
2018-07-22T20:54:09.872Z,22.77
2018-07-22T20:56:43.766Z,22.37
2018-07-22T20:59:17.487Z,22.13
2018-07-22T21:01:51.315Z,21.05
2018-07-22T21:04:25.089Z,23.33
2018-07-22T21:06:58.861Z,22.35
2018-07-22T21:09:32.773Z,22.58
2018-07-22T21:15:05.109Z,25.17
2018-07-22T21:17:38.838Z,22.80
2018-07-22T21:20:13.434Z,21.60
2018-07-22T21:22:47.196Z,21.77
2018-07-22T21:25:21.728Z,22.85
2018-07-22T21:27:56.268Z,22.65
2018-07-22T21:30:29.908Z,22.95
2018-07-22T21:33:03.766Z,22.65
2018-07-22T21:35:37.531Z,23.52
2018-07-22T21:38:11.211Z,23.08
2018-07-22T21:40:45.057Z,22.42
2018-07-22T21:43:19.584Z,24.50
2018-07-22T21:45:53.483Z,23.60
2018-07-22T21:48:27.241Z,25.08
2018-07-22T21:51:00.940Z,25.10
2018-07-22T21:53:34.753Z,23.62
2018-07-22T21:56:08.527Z,26.05
2018-07-22T21:58:42.442Z,25.58
2018-07-22T22:01:17.363Z,23.50
2018-07-22T22:03:51.077Z,24.75
2018-07-22T22:06:24.916Z,26.10
2018-07-22T22:08:58.710Z,27.62
2018-07-22T22:11:32.480Z,26.67
2018-07-22T22:14:06.370Z,24.90
2018-07-22T22:16:40.056Z,28.70
2018-07-22T22:19:13.876Z,28.02
2018-07-22T22:21:47.676Z,29.83
2018-07-22T22:24:21.476Z,29.58
2018-07-22T22:26:55.253Z,29.45
2018-07-22T22:29:29.009Z,27.98
2018-07-22T22:32:02.873Z,27.30
2018-07-22T22:34:36.645Z,27.87
2018-07-22T22:37:10.501Z,27.45
2018-07-22T22:39:44.277Z,25.67
2018-07-22T22:42:18.076Z,26.60
2018-07-22T22:44:52.604Z,25.67
2018-07-22T22:47:26.383Z,27.98
2018-07-22T22:50:00.236Z,28.35
2018-07-22T22:52:34.816Z,28.90
2018-07-22T22:55:08.481Z,24.60
2018-07-22T22:57:42.328Z,24.92
2018-07-22T23:00:16.144Z,26.60
2018-07-22T23:02:49.991Z,26.20
2018-07-22T23:05:23.785Z,25.70
2018-07-22T23:07:57.647Z,27.45
2018-07-22T23:10:31.522Z,25.60
2018-07-22T23:13:05.372Z,25.15
2018-07-22T23:15:39.151Z,24.98
2018-07-22T23:18:12.908Z,27.20
2018-07-22T23:20:46.710Z,26.58
2018-07-22T23:23:21.341Z,26.75
2018-07-22T23:25:55.177Z,27.87
2018-07-22T23:28:28.828Z,27.77
2018-07-22T23:31:03.363Z,27.08
2018-07-22T23:33:37.095Z,27.65
2018-07-22T23:36:10.980Z,29.83
2018-07-22T23:38:44.816Z,29.67
2018-07-22T23:41:18.581Z,29.80
2018-07-22T23:43:52.438Z,29.73
2018-07-22T23:46:26.228Z,29.92
2018-07-22T23:49:00.054Z,30.52
2018-07-22T23:51:34.705Z,30.92
2018-07-22T23:54:08.564Z,32.28
2018-07-22T23:56:42.380Z,31.50
2018-07-22T23:59:16.198Z,29.92
